createdAt,value
2023-05-03T00:00:39.685Z,101588.75
2023-05-03T00:05:41.725Z,101595.06
2023-05-03T00:10:43.602Z,101590.28
2023-05-03T00:15:46.608Z,101586.50
2023-05-03T00:20:48.330Z,101579.97
2023-05-03T00:25:52.772Z,101577.44
2023-05-03T00:30:55.930Z,101569.53
2023-05-03T00:35:57.634Z,101564.91
2023-05-03T00:40:59.334Z,101555.00
2023-05-03T00:46:15.930Z,101562.09
2023-05-03T00:51:20.458Z,101552.75
2023-05-03T00:56:22.368Z,101557.28
2023-05-03T01:01:25.840Z,101554.22
2023-05-03T01:06:35.948Z,101552.25
2023-05-03T01:11:46.944Z,101541.25
2023-05-03T01:16:54.087Z,101546.50
2023-05-03T01:22:03.147Z,101546.13
2023-05-03T01:27:06.296Z,101547.72
2023-05-03T01:32:19.304Z,101556.47
2023-05-03T01:37:21.500Z,101556.84
2023-05-03T01:42:26.379Z,101562.09
2023-05-03T01:47:28.111Z,101564.88
2023-05-03T01:52:29.896Z,101575.66
2023-05-03T01:57:32.947Z,101582.72
2023-05-03T02:02:34.638Z,101581.06
2023-05-03T02:07:36.316Z,101586.34
2023-05-03T02:12:39.420Z,101577.13
2023-05-03T02:17:43.531Z,101578.44
2023-05-03T02:22:45.158Z,101578.44
2023-05-03T02:27:48.170Z,101576.31
2023-05-03T02:32:49.887Z,101579.63
2023-05-03T02:37:51.564Z,101577.13
2023-05-03T02:42:54.603Z,101578.66
2023-05-03T02:47:56.348Z,101577.13
2023-05-03T02:52:58.065Z,101583.28
2023-05-03T02:58:01.123Z,101580.75
2023-05-03T03:03:02.938Z,101582.00
2023-05-03T03:08:05.357Z,101568.75
2023-05-03T03:13:08.398Z,101561.97
2023-05-03T03:18:10.117Z,101562.16
2023-05-03T03:23:11.857Z,101558.66
2023-05-03T03:28:14.876Z,101562.66
2023-05-03T03:33:16.757Z,101566.72
2023-05-03T03:38:19.266Z,101575.88
2023-05-03T03:43:22.286Z,101574.13
2023-05-03T03:48:23.934Z,101567.06
2023-05-03T03:53:25.679Z,101580.50
2023-05-03T03:58:28.705Z,101579.59
2023-05-03T04:03:30.534Z,101574.34
2023-05-03T04:08:32.255Z,101578.75
2023-05-03T04:13:35.220Z,101571.91
2023-05-03T04:18:36.888Z,101574.59
2023-05-03T04:23:38.642Z,101569.88
2023-05-03T04:28:41.640Z,101573.22
2023-05-03T04:33:43.394Z,101578.09
2023-05-03T04:38:45.078Z,101580.84
2023-05-03T04:43:48.131Z,101562.63
2023-05-03T04:48:49.773Z,101571.09
2023-05-03T04:53:51.463Z,101571.41
2023-05-03T04:58:54.521Z,101581.53
2023-05-03T05:03:56.402Z,101589.13
2023-05-03T05:08:58.468Z,101582.16
2023-05-03T05:14:01.466Z,101585.41
2023-05-03T05:19:03.172Z,101570.22
2023-05-03T05:24:05.308Z,101566.72
2023-05-03T05:29:08.332Z,101564.41
2023-05-03T05:34:09.999Z,101562.72
2023-05-03T05:39:11.644Z,101568.19
2023-05-03T05:44:14.636Z,101575.88
2023-05-03T05:49:16.333Z,101588.78
2023-05-03T05:54:18.066Z,101595.22
2023-05-03T05:59:21.189Z,101591.63
2023-05-03T06:04:22.949Z,101588.75
2023-05-03T06:09:25.226Z,101603.16
2023-05-03T06:14:28.480Z,101601.22
2023-05-03T06:19:30.193Z,101589.22
2023-05-03T06:24:31.946Z,101583.78
2023-05-03T06:29:35.051Z,101584.81
2023-05-03T06:34:36.764Z,101575.41
2023-05-03T06:39:38.413Z,101584.91
2023-05-03T06:44:42.209Z,101587.63
2023-05-03T06:49:43.865Z,101590.97
2023-05-03T06:54:45.582Z,101594.19
2023-05-03T06:59:48.778Z,101593.00
2023-05-03T07:04:50.478Z,101579.41
2023-05-03T07:09:52.124Z,101575.56
2023-05-03T07:14:55.526Z,101569.53
2023-05-03T07:19:57.248Z,101565.41
2023-05-03T07:24:59.116Z,101556.00
2023-05-03T07:30:02.563Z,101554.19
2023-05-03T07:35:05.098Z,101552.97
2023-05-03T07:40:07.971Z,101549.84
2023-05-03T07:45:11.710Z,101547.91
2023-05-03T07:50:13.214Z,101544.16
2023-05-03T07:55:17.354Z,101536.53
2023-05-03T08:00:20.718Z,101540.66
2023-05-03T08:05:22.868Z,101542.50
2023-05-03T08:10:24.791Z,101535.50
2023-05-03T08:15:27.938Z,101525.72
2023-05-03T08:20:29.784Z,101532.47
2023-05-03T08:25:31.468Z,101529.50
2023-05-03T08:30:34.590Z,101531.31
2023-05-03T08:35:36.486Z,101524.56
2023-05-03T08:40:38.433Z,101523.28
2023-05-03T08:45:41.603Z,101514.88
2023-05-03T08:50:44.413Z,101515.38
2023-05-03T08:55:46.090Z,101520.50
2023-05-03T09:00:49.168Z,101514.28
2023-05-03T09:05:50.814Z,101509.84
2023-05-03T09:10:52.467Z,101502.16
2023-05-03T09:15:56.633Z,101512.84
2023-05-03T09:20:59.151Z,101509.69
2023-05-03T09:26:00.998Z,101505.56
2023-05-03T09:31:07.655Z,101487.69
2023-05-03T09:36:09.696Z,101486.50
2023-05-03T09:41:11.389Z,101480.19
2023-05-03T09:46:14.671Z,101484.97
2023-05-03T09:51:16.718Z,101486.28
2023-05-03T09:56:18.352Z,101488.03
2023-05-03T10:01:24.110Z,101493.53
2023-05-03T10:06:31.302Z,101488.66
2023-05-03T10:11:35.775Z,101472.91
2023-05-03T10:16:44.572Z,101463.88
2023-05-03T10:21:55.554Z,101460.06
2023-05-03T10:26:57.226Z,101453.88
2023-05-03T10:32:00.332Z,101446.41
2023-05-03T10:37:03.083Z,101453.91
2023-05-03T10:42:08.582Z,101449.28
2023-05-03T10:47:13.441Z,101444.59
2023-05-03T10:52:51.568Z,101428.94
2023-05-03T10:57:55.515Z,101438.25
2023-05-03T11:03:30.878Z,101426.31
2023-05-03T11:08:32.628Z,101432.31
2023-05-03T11:13:34.384Z,101413.75
2023-05-03T11:18:37.553Z,101413.78
2023-05-03T11:23:39.718Z,101397.97
2023-05-03T11:28:42.872Z,101383.19
2023-05-03T11:33:47.999Z,101381.06
2023-05-03T11:38:49.814Z,101388.44
2023-05-03T11:44:00.560Z,101381.25
2023-05-03T11:49:17.514Z,101369.28
2023-05-03T11:54:25.182Z,101367.78
2023-05-03T11:59:34.907Z,101372.84
2023-05-03T12:04:39.570Z,101355.13
2023-05-03T12:09:43.641Z,101362.44
2023-05-03T12:14:58.193Z,101367.75
2023-05-03T12:25:21.559Z,101349.56
2023-05-03T12:30:24.504Z,101341.75
2023-05-03T12:35:28.522Z,101335.38
2023-05-03T12:40:34.226Z,101322.03
2023-05-03T12:45:40.125Z,101317.75
2023-05-03T12:50:45.564Z,101308.56
2023-05-03T12:55:51.439Z,101305.34
2023-05-03T13:06:01.087Z,101305.69
2023-05-03T13:11:03.798Z,101282.66
2023-05-03T13:16:05.753Z,101279.03
2023-05-03T13:21:09.786Z,101271.34
2023-05-03T13:26:11.497Z,101267.66
2023-05-03T13:31:13.235Z,101258.53
2023-05-03T13:36:16.424Z,101250.63
2023-05-03T13:41:18.530Z,101244.13
2023-05-03T13:46:20.258Z,101241.16
2023-05-03T13:51:23.651Z,101227.63
2023-05-03T13:56:25.355Z,101228.06
2023-05-03T14:01:28.114Z,101222.16
2023-05-03T14:06:33.381Z,101214.75
2023-05-03T14:11:35.716Z,101203.69
2023-05-03T14:16:41.301Z,101182.94
2023-05-03T14:21:45.163Z,101192.34
2023-05-03T14:26:46.888Z,101177.06
2023-05-03T14:31:48.650Z,101176.50
2023-05-03T14:36:54.406Z,101166.28
2023-05-03T14:41:56.613Z,101149.63
2023-05-03T14:46:58.467Z,101151.03
2023-05-03T14:52:01.668Z,101145.44
2023-05-03T14:57:03.599Z,101147.22
2023-05-03T15:02:05.311Z,101141.78
2023-05-03T15:07:08.392Z,101139.94
2023-05-03T15:12:10.074Z,101135.06
2023-05-03T15:17:11.800Z,101133.53
2023-05-03T15:22:14.988Z,101121.31
2023-05-03T15:27:16.708Z,101122.06
2023-05-03T15:32:18.390Z,101112.66
2023-05-03T15:37:21.544Z,101111.41
2023-05-03T15:42:23.413Z,101113.78
2023-05-03T15:47:25.321Z,101115.28
2023-05-03T15:52:28.383Z,101109.44
2023-05-03T15:57:30.519Z,101103.41
2023-05-03T16:02:32.288Z,101109.97
2023-05-03T16:07:35.517Z,101112.94
2023-05-03T16:12:37.418Z,101117.97
2023-05-03T16:17:39.157Z,101117.13
2023-05-03T16:22:42.264Z,101113.78
2023-05-03T16:27:43.925Z,101115.72
2023-05-03T16:32:45.591Z,101107.63
2023-05-03T16:37:49.737Z,101108.31
2023-05-03T16:42:51.432Z,101110.41
2023-05-03T16:47:53.154Z,101115.16
2023-05-03T16:52:56.403Z,101109.25
2023-05-03T16:57:58.020Z,101114.16
2023-05-03T17:02:59.877Z,101110.09
2023-05-03T17:08:03.417Z,101114.53
2023-05-03T17:13:05.353Z,101105.88
2023-05-03T17:18:07.032Z,101111.88
2023-05-03T17:23:10.133Z,101106.84
2023-05-03T17:28:11.780Z,101107.56
2023-05-03T17:33:13.500Z,101105.47
2023-05-03T17:38:16.594Z,101109.66
2023-05-03T17:43:18.274Z,101106.41
2023-05-03T17:48:19.994Z,101109.78
2023-05-03T17:53:23.190Z,101106.72
2023-05-03T17:58:24.935Z,101116.91
2023-05-03T18:03:26.752Z,101112.03
2023-05-03T18:08:30.054Z,101115.06
2023-05-03T18:13:31.826Z,101115.94
2023-05-03T18:18:33.639Z,101114.69
2023-05-03T18:23:36.917Z,101120.84
2023-05-03T18:28:38.558Z,101126.72
2023-05-03T18:33:40.277Z,101126.16
2023-05-03T18:38:43.345Z,101127.13
2023-05-03T18:43:46.298Z,101136.22
2023-05-03T18:48:47.998Z,101140.00
2023-05-03T18:53:51.087Z,101136.19
2023-05-03T18:58:52.704Z,101137.09
2023-05-03T19:03:54.396Z,101128.56
2023-05-03T19:08:57.444Z,101136.53
2023-05-03T19:13:59.127Z,101149.03
2023-05-03T19:19:00.905Z,101157.34
2023-05-03T19:24:04.279Z,101151.59
2023-05-03T19:29:06.012Z,101150.81
2023-05-03T19:34:07.666Z,101148.97
2023-05-03T19:39:10.651Z,101157.88
2023-05-03T19:44:12.340Z,101157.66
2023-05-03T19:49:14.029Z,101160.13
2023-05-03T19:54:17.191Z,101156.94
2023-05-03T19:59:18.842Z,101154.16
2023-05-03T20:04:20.557Z,101159.13
2023-05-03T20:09:23.723Z,101161.50
2023-05-03T20:14:25.668Z,101159.97
2023-05-03T20:19:27.359Z,101173.84
2023-05-03T20:24:30.533Z,101165.28
2023-05-03T20:29:32.133Z,101161.31
2023-05-03T20:34:33.815Z,101157.72
2023-05-03T20:39:36.794Z,101157.47
2023-05-03T20:44:38.428Z,101156.66
2023-05-03T20:49:40.120Z,101160.16
2023-05-03T20:54:45.125Z,101150.41
2023-05-03T20:59:47.131Z,101149.56
2023-05-03T21:04:48.755Z,101149.38
2023-05-03T21:09:51.996Z,101148.97
2023-05-03T21:14:53.646Z,101148.16
2023-05-03T21:19:55.360Z,101147.81
2023-05-03T21:24:58.841Z,101156.66
2023-05-03T21:30:00.742Z,101159.13
2023-05-03T21:35:02.434Z,101158.84
2023-05-03T21:40:07.543Z,101156.31
2023-05-03T21:45:11.270Z,101151.13
2023-05-03T21:50:13.077Z,101151.25
2023-05-03T21:55:16.097Z,101142.44
2023-05-03T22:00:18.314Z,101145.59
2023-05-03T22:05:20.076Z,101139.19
2023-05-03T22:10:23.112Z,101145.19
2023-05-03T22:15:24.797Z,101139.25
2023-05-03T22:20:27.885Z,101137.59
2023-05-03T22:25:32.237Z,101136.97
2023-05-03T22:30:34.159Z,101129.25
2023-05-03T22:35:35.806Z,101127.47
2023-05-03T22:40:38.918Z,101125.84
2023-05-03T22:45:40.709Z,101128.47
2023-05-03T22:50:42.373Z,101127.50
2023-05-03T22:55:54.312Z,101128.22
2023-05-03T23:00:56.252Z,101112.16
2023-05-03T23:05:57.883Z,101118.50
2023-05-03T23:11:00.970Z,101114.84
2023-05-03T23:16:02.781Z,101112.16
2023-05-03T23:21:06.688Z,101114.22
2023-05-03T23:26:09.731Z,101120.78
2023-05-03T23:31:11.920Z,101117.84
2023-05-03T23:36:14.076Z,101111.09
2023-05-03T23:41:17.213Z,101113.38
2023-05-03T23:46:18.994Z,101105.50
2023-05-03T23:51:20.746Z,101102.78
2023-05-03T23:56:24.508Z,101103.19
